Time;durP1;ratioP1;P1;durP2;ratioP2;P2;SDS_P1;SDS_P2;PMS_P1;PMS_P2;Temp;Humidity;BMP_temperature;BMP_pressure;BME280_temperature;BME280_humidity;BME280_pressure;Samples;Min_cycle;Max_cycle;Signal;HPM_P1;HPM_P2
2023/06/23 00:01:26;;;;;;;7.35;3.40;;;;;;;;;;7594505;19;20372;-83
2023/06/23 00:03:59;;;;;;;7.82;3.22;;;;;;;;;;7599263;19;20703;-84
2023/06/23 00:06:32;;;;;;;11.68;3.17;;;;;;;;;;7611562;19;20018;-82
2023/06/23 00:09:13;;;;;;;9.87;3.13;;;;;;;;;;7606369;19;20063;-83
2023/06/23 00:11:46;;;;;;;6.30;3.50;;;;;;;;;;7582243;19;20142;-83
2023/06/23 00:14:19;;;;;;;5.55;2.60;;;;;;;;;;7596481;19;20655;-84
2023/06/23 00:16:52;;;;;;;9.65;2.90;;;;;;;;;;7597288;19;20023;-83
2023/06/23 00:19:25;;;;;;;7.95;2.90;;;;;;;;;;7583329;19;21131;-84
2023/06/23 00:21:58;;;;;;;6.07;3.33;;;;;;;;;;7592859;19;25045;-84
2023/06/23 00:24:32;;;;;;;5.43;2.60;;;;;;;;;;7587785;19;26282;-84
2023/06/23 00:27:05;;;;;;;5.82;2.38;;;;;;;;;;7597720;19;25038;-82
2023/06/23 00:29:38;;;;;;;6.80;2.42;;;;;;;;;;7598728;19;25044;-84
2023/06/23 00:32:12;;;;;;;8.18;2.85;;;;;;;;;;7602133;19;25036;-83
2023/06/23 00:34:45;;;;;;;8.10;2.78;;;;;;;;;;7587482;19;25050;-84
2023/06/23 00:37:19;;;;;;;6.53;2.80;;;;;;;;;;7599114;19;25033;-83
2023/06/23 00:39:52;;;;;;;6.20;2.45;;;;;;;;;;7577587;19;25047;-84
2023/06/23 00:42:25;;;;;;;4.90;2.42;;;;;;;;;;7597267;19;25033;-83
2023/06/23 00:44:58;;;;;;;4.18;2.35;;;;;;;;;;7597783;19;25046;-84
2023/06/23 00:47:31;;;;;;;3.95;2.33;;;;;;;;;;7594977;19;25046;-83
2023/06/23 00:50:05;;;;;;;5.82;2.85;;;;;;;;;;7589328;19;25051;-83
2023/06/23 00:52:38;;;;;;;7.70;2.50;;;;;;;;;;7602745;19;25071;-83
2023/06/23 00:55:11;;;;;;;3.85;2.45;;;;;;;;;;7598655;19;25032;-83
2023/06/23 00:57:44;;;;;;;4.22;2.80;;;;;;;;;;7583774;19;25129;-82
2023/06/23 01:00:18;;;;;;;3.78;2.20;;;;;;;;;;7601333;19;25050;-83
2023/06/23 01:02:54;;;;;;;2.85;2.03;;;;;;;;;;7579469;19;25041;-83
2023/06/23 01:05:37;;;;;;;6.43;2.85;;;;;;;;;;7565013;19;25046;-83
2023/06/23 01:08:30;;;;;;;4.43;2.20;;;;;;;;;;7593923;19;25054;-83
2023/06/23 01:11:11;;;;;;;3.88;1.95;;;;;;;;;;7591171;19;25041;-83
2023/06/23 01:13:50;;;;;;;7.00;2.30;;;;;;;;;;7584737;19;25095;-82
2023/06/23 01:16:23;;;;;;;7.25;2.63;;;;;;;;;;7588312;19;25033;-84
2023/06/23 01:19:14;;;;;;;8.65;2.78;;;;;;;;;;7546222;19;25044;-84
2023/06/23 01:21:56;;;;;;;5.57;2.60;;;;;;;;;;7587951;19;25037;-83
2023/06/23 01:24:35;;;;;;;10.90;3.47;;;;;;;;;;7564467;19;25048;-84
2023/06/23 01:27:07;;;;;;;6.43;2.45;;;;;;;;;;7577298;19;25044;-83
2023/06/23 01:29:44;;;;;;;5.82;2.60;;;;;;;;;;7590997;19;25038;-84
2023/06/23 01:32:20;;;;;;;4.95;3.03;;;;;;;;;;7593743;19;25149;-84
2023/06/23 01:34:57;;;;;;;7.65;2.90;;;;;;;;;;7570282;19;24872;-83
2023/06/23 01:37:32;;;;;;;4.13;2.25;;;;;;;;;;7592743;19;25083;-83
2023/06/23 01:40:13;;;;;;;6.07;2.55;;;;;;;;;;7587218;19;25109;-82
2023/06/23 01:42:52;;;;;;;4.80;2.65;;;;;;;;;;7576538;19;25129;-83
2023/06/23 01:45:27;;;;;;;5.15;2.47;;;;;;;;;;7579016;19;25053;-83
2023/06/23 01:48:03;;;;;;;4.47;2.67;;;;;;;;;;7586176;19;25032;-82
2023/06/23 01:50:39;;;;;;;5.25;2.40;;;;;;;;;;7577442;19;25089;-83
2023/06/23 01:53:12;;;;;;;8.15;2.60;;;;;;;;;;7587772;19;25093;-82
2023/06/23 01:55:45;;;;;;;9.75;2.50;;;;;;;;;;7583786;19;25048;-82
2023/06/23 01:58:19;;;;;;;7.47;2.92;;;;;;;;;;7585949;19;25100;-82
2023/06/23 02:00:53;;;;;;;7.60;2.55;;;;;;;;;;7581201;19;25053;-82
2023/06/23 02:03:27;;;;;;;5.25;2.70;;;;;;;;;;7587319;19;25047;-83
2023/06/23 02:06:00;;;;;;;3.65;2.22;;;;;;;;;;7567530;19;25073;-83
2023/06/23 02:08:33;;;;;;;7.72;3.25;;;;;;;;;;7603315;19;25053;-83
2023/06/23 02:11:07;;;;;;;5.85;2.65;;;;;;;;;;7585162;19;25043;-83
2023/06/23 02:13:42;;;;;;;7.28;2.50;;;;;;;;;;7579481;19;25031;-82
2023/06/23 02:16:15;;;;;;;4.13;2.53;;;;;;;;;;7590360;19;25108;-86
2023/06/23 02:18:53;;;;;;;6.07;3.08;;;;;;;;;;7587014;19;25046;-83
2023/06/23 02:21:27;;;;;;;4.88;2.75;;;;;;;;;;7581091;19;20422;-84
2023/06/23 02:24:03;;;;;;;3.65;2.70;;;;;;;;;;7583744;19;20026;-83
2023/06/23 02:26:38;;;;;;;8.93;2.83;;;;;;;;;;7591411;19;20017;-82
2023/06/23 02:29:13;;;;;;;4.90;3.03;;;;;;;;;;7569304;19;20026;-83
2023/06/23 02:31:46;;;;;;;4.65;2.35;;;;;;;;;;7578907;19;20014;-85
2023/06/23 02:34:20;;;;;;;8.20;3.40;;;;;;;;;;7594122;19;20014;-83
2023/06/23 02:36:55;;;;;;;6.78;3.10;;;;;;;;;;7566727;19;20507;-83
2023/06/23 02:39:30;;;;;;;6.95;2.78;;;;;;;;;;7581457;19;20778;-83
2023/06/23 02:42:03;;;;;;;6.30;2.83;;;;;;;;;;7560193;19;20018;-83
2023/06/23 02:44:42;;;;;;;5.05;2.78;;;;;;;;;;7585326;19;21018;-83
2023/06/23 02:47:17;;;;;;;9.32;3.40;;;;;;;;;;7586885;19;20127;-83
2023/06/23 02:49:52;;;;;;;7.22;2.65;;;;;;;;;;7578561;19;20025;-83
2023/06/23 02:52:27;;;;;;;4.32;2.80;;;;;;;;;;7581842;19;20018;-82
2023/06/23 02:55:00;;;;;;;5.55;2.95;;;;;;;;;;7585143;19;20018;-83
2023/06/23 02:57:33;;;;;;;8.27;3.10;;;;;;;;;;7568164;19;20010;-82
2023/06/23 03:00:14;;;;;;;9.50;3.22;;;;;;;;;;7575856;19;20018;-82
2023/06/23 03:02:48;;;;;;;5.20;2.60;;;;;;;;;;7598127;19;20018;-84
2023/06/23 03:05:21;;;;;;;3.40;2.10;;;;;;;;;;7574962;19;20021;-82
2023/06/23 03:07:54;;;;;;;9.80;3.05;;;;;;;;;;7576866;19;20510;-82
2023/06/23 03:10:28;;;;;;;4.45;2.80;;;;;;;;;;7590929;19;20026;-82
2023/06/23 03:13:01;;;;;;;5.07;2.45;;;;;;;;;;7591045;19;20018;-82
2023/06/23 03:15:33;;;;;;;9.27;3.10;;;;;;;;;;7601158;19;20015;-82
2023/06/23 03:18:15;;;;;;;4.63;2.35;;;;;;;;;;7586332;19;20459;-83
2023/06/23 03:20:49;;;;;;;3.65;2.55;;;;;;;;;;7591128;19;20018;-82
2023/06/23 03:23:25;;;;;;;5.07;2.30;;;;;;;;;;7577476;19;20035;-81
2023/06/23 03:25:59;;;;;;;5.05;2.72;;;;;;;;;;7560179;19;20086;-82
2023/06/23 03:28:32;;;;;;;;;;;;;;;;;;7584502;19;20413;-82
2023/06/23 03:31:12;;;;;;;7.30;2.70;;;;;;;;;;7581164;19;19964;-81
2023/06/23 03:33:45;;;;;;;4.35;2.40;;;;;;;;;;7580847;19;20018;-83
2023/06/23 03:36:23;;;;;;;3.50;2.20;;;;;;;;;;7578656;19;20018;-83
2023/06/23 03:38:58;;;;;;;4.93;2.65;;;;;;;;;;7586637;19;20032;-82
2023/06/23 03:41:32;;;;;;;5.70;2.60;;;;;;;;;;7579193;19;20098;-83
2023/06/23 03:44:09;;;;;;;3.72;2.15;;;;;;;;;;7578725;19;20010;-82
2023/06/23 03:46:46;;;;;;;3.83;2.38;;;;;;;;;;7587939;19;20559;-82
2023/06/23 03:49:21;;;;;;;3.75;2.30;;;;;;;;;;7580527;19;21346;-82
2023/06/23 03:51:56;;;;;;;7.97;2.00;;;;;;;;;;7592343;19;20098;-83
2023/06/23 03:54:30;;;;;;;4.53;2.10;;;;;;;;;;7582450;19;20022;-81
2023/06/23 03:57:03;;;;;;;5.53;2.28;;;;;;;;;;7580070;19;20018;-82
2023/06/23 03:59:37;;;;;;;7.35;1.83;;;;;;;;;;7581573;19;20275;-82
2023/06/23 04:02:14;;;;;;;5.88;1.95;;;;;;;;;;7581896;19;20090;-82
2023/06/23 04:04:48;;;;;;;2.35;1.70;;;;;;;;;;7587820;19;20020;-82
2023/06/23 04:07:23;;;;;;;1.75;1.42;;;;;;;;;;7589404;19;20025;-82
2023/06/23 04:09:57;;;;;;;3.30;1.80;;;;;;;;;;7590225;19;20656;-81
2023/06/23 04:12:31;;;;;;;2.03;1.50;;;29.70;82.70;;;;;;7585497;19;20060;-81
2023/06/23 04:15:08;;;;;;;3.50;1.70;;;18.40;99.90;;;;;;7579795;19;20010;-81
2023/06/23 04:17:42;;;;;;;3.25;1.80;;;17.70;99.90;;;;;;7578768;19;20018;-81
2023/06/23 04:20:16;;;;;;;2.55;1.60;;;17.70;99.90;;;;;;7582574;19;20022;-81
2023/06/23 04:22:49;;;;;;;6.57;1.30;;;17.80;99.90;;;;;;7583379;19;20026;-81
2023/06/23 04:25:23;;;;;;;1.98;1.48;;;17.90;99.90;;;;;;7589552;19;20022;-82
2023/06/23 04:27:58;;;;;;;;;;;17.90;99.90;;;;;;7544899;19;20017;-81
2023/06/23 04:30:33;;;;;;;5.38;1.50;;;17.90;99.90;;;;;;7577657;19;19926;-84
2023/06/23 04:33:06;;;;;;;3.03;1.58;;;17.90;99.90;;;;;;7575176;19;20030;-82
2023/06/23 04:35:38;;;;;;;3.17;1.80;;;18.00;99.90;;;;;;7550329;19;20014;-82
2023/06/23 04:38:14;;;;;;;2.38;1.63;;;18.00;99.90;;;;;;7557607;19;20442;-83
2023/06/23 04:40:54;;;;;;;3.00;1.30;;;18.00;99.90;;;;;;7556741;19;20021;-83
2023/06/23 04:43:37;;;;;;;5.05;1.33;;;18.10;99.90;;;;;;7578395;19;20018;-83
2023/06/23 04:46:20;;;;;;;3.60;1.50;;;18.00;99.90;;;;;;7558182;19;20690;-81
2023/06/23 04:49:07;;;;;;;4.20;1.57;;;18.10;99.90;;;;;;7550926;19;20018;-82
2023/06/23 04:51:43;;;;;;;1.08;0.88;;;18.10;99.90;;;;;;7578821;19;20791;-82
2023/06/23 04:54:22;;;;;;;1.75;1.10;;;18.10;99.90;;;;;;7558131;19;20015;-83
2023/06/23 04:57:01;;;;;;;3.22;1.10;;;18.10;99.90;;;;;;7562294;19;20117;-81
2023/06/23 04:59:37;;;;;;;1.63;1.40;;;18.10;99.90;;;;;;7567037;19;20019;-82
2023/06/23 05:02:13;;;;;;;1.90;1.20;;;18.00;99.90;;;;;;7590622;19;20014;-82
2023/06/23 05:04:48;;;;;;;1.88;1.20;;;18.00;99.90;;;;;;7598677;19;20053;-82
2023/06/23 05:07:23;;;;;;;5.18;1.10;;;17.80;99.90;;;;;;7600669;19;20038;-81
2023/06/23 05:09:58;;;;;;;1.20;1.02;;;17.80;99.90;;;;;;7598445;19;20047;-81
2023/06/23 05:12:34;;;;;;;1.80;1.00;;;17.60;99.90;;;;;;7586603;19;20064;-81
2023/06/23 05:15:07;;;;;;;4.82;1.20;;;17.50;99.90;;;;;;7577493;19;20014;-81
2023/06/23 05:17:44;;;;;;;5.70;1.30;;;17.20;99.90;;;;;;7600060;19;20090;-85
2023/06/23 05:20:19;;;;;;;5.15;1.30;;;17.00;99.90;;;;;;7560679;19;20026;-83
2023/06/23 05:22:55;;;;;;;4.05;1.70;;;16.90;99.90;;;;;;7569967;19;20021;-84
2023/06/23 05:25:30;;;;;;;5.63;1.65;;;16.80;99.90;;;;;;7557950;19;20014;-83
2023/06/23 05:28:04;;;;;;;4.28;1.60;;;16.80;99.90;;;;;;7560333;19;20010;-81
2023/06/23 05:30:39;;;;;;;2.17;1.30;;;16.70;99.90;;;;;;7558494;19;20042;-82
2023/06/23 05:33:13;;;;;;;4.97;1.58;;;16.70;99.90;;;;;;7561024;19;20010;-81
2023/06/23 05:35:46;;;;;;;2.35;1.75;;;16.70;99.90;;;;;;7521243;19;20026;-79
2023/06/23 05:38:22;;;;;;;1.67;1.08;;;16.70;99.90;;;;;;7566858;19;20615;-79
2023/06/23 05:40:55;;;;;;;3.00;1.30;;;16.80;99.90;;;;;;7539716;19;20507;-80
2023/06/23 05:43:27;;;;;;;10.45;1.40;;;16.80;99.90;;;;;;7558500;19;20018;-80
2023/06/23 05:46:05;;;;;;;2.22;1.13;;;16.80;99.90;;;;;;7568759;19;20015;-79
2023/06/23 05:48:58;;;;;;;0.98;0.85;;;16.80;99.90;;;;;;7559376;19;20021;-79
2023/06/23 05:51:32;;;;;;;2.05;1.17;;;16.80;99.90;;;;;;7576567;19;20559;-79
2023/06/23 05:54:09;;;;;;;1.38;0.80;;;16.80;99.90;;;;;;7571301;19;20007;-79
2023/06/23 05:56:50;;;;;;;1.27;0.80;;;16.80;99.90;;;;;;7568839;19;20500;-79
2023/06/23 05:59:27;;;;;;;4.10;1.30;;;16.80;99.90;;;;;;7554108;19;20014;-76
2023/06/23 06:02:02;;;;;;;1.98;1.23;;;16.80;99.90;;;;;;7559332;19;20643;-76
2023/06/23 06:04:39;;;;;;;1.65;1.20;;;16.70;99.90;;;;;;7585220;19;20044;-77
2023/06/23 06:07:13;;;;;;;1.98;1.70;;;16.70;99.90;;;;;;7585271;19;20010;-77
2023/06/23 06:09:46;;;;;;;;;;;16.60;99.90;;;;;;7579837;19;20122;-77
2023/06/23 06:12:18;;;;;;;2.33;1.88;;;16.60;99.90;;;;;;7533371;19;20238;-76
2023/06/23 06:14:52;;;;;;;4.43;1.65;;;16.60;99.90;;;;;;7584450;19;20014;-79
2023/06/23 06:17:25;;;;;;;3.03;1.80;;;16.60;99.90;;;;;;7581130;19;20006;-77
2023/06/23 06:20:01;;;;;;;2.67;1.73;;;16.60;99.90;;;;;;7574364;19;20018;-77
2023/06/23 06:22:37;;;;;;;8.73;2.47;;;16.60;99.90;;;;;;7587324;19;20065;-78
2023/06/23 06:25:11;;;;;;;3.17;2.25;;;16.60;99.90;;;;;;7560643;19;20740;-77
2023/06/23 06:27:47;;;;;;;4.82;2.50;;;16.70;99.90;;;;;;7567938;19;20094;-77
2023/06/23 06:30:21;;;;;;;3.67;2.88;;;16.70;99.90;;;;;;7584141;19;20029;-77
2023/06/23 06:32:54;;;;;;;4.32;2.92;;;16.80;99.90;;;;;;7572294;19;20015;-76
2023/06/23 06:35:28;;;;;;;6.35;3.38;;;16.80;99.90;;;;;;7577559;19;20449;-76
2023/06/23 06:38:03;;;;;;;6.30;3.78;;;16.80;99.90;;;;;;7592858;19;20014;-77
2023/06/23 06:40:37;;;;;;;6.65;3.58;;;16.80;99.90;;;;;;7566109;19;20026;-76
2023/06/23 06:43:10;;;;;;;6.88;4.30;;;16.80;99.90;;;;;;7568966;19;20048;-77
2023/06/23 06:45:44;;;;;;;7.28;5.20;;;16.80;99.90;;;;;;7570912;19;20206;-77
2023/06/23 06:48:18;;;;;;;5.97;4.80;;;16.80;99.90;;;;;;7535199;19;20011;-77
2023/06/23 06:50:50;;;;;;;8.80;5.75;;;16.80;99.90;;;;;;7563766;19;20943;-77
2023/06/23 06:53:24;;;;;;;9.07;7.13;;;16.90;99.90;;;;;;7563456;19;20479;-77
2023/06/23 06:55:58;;;;;;;11.82;8.00;;;16.90;99.90;;;;;;7583440;19;20018;-77
2023/06/23 06:58:30;;;;;;;8.95;7.60;;;17.00;99.90;;;;;;7584031;19;20011;-76
2023/06/23 07:01:03;;;;;;;14.27;8.67;;;16.90;99.90;;;;;;7574550;19;20095;-77
2023/06/23 07:03:37;;;;;;;11.23;8.73;;;16.90;99.90;;;;;;7584485;19;21155;-76
2023/06/23 07:06:10;;;;;;;11.32;8.73;;;17.00;99.90;;;;;;7610266;19;20585;-77
2023/06/23 07:08:46;;;;;;;14.70;10.10;;;17.00;99.90;;;;;;7613730;19;20014;-76
2023/06/23 07:11:28;;;;;;;11.40;8.73;;;17.10;99.90;;;;;;7621311;19;20010;-77
2023/06/23 07:14:00;;;;;;;14.38;9.75;;;17.00;99.90;;;;;;7603474;19;20021;-76
2023/06/23 07:16:33;;;;;;;14.15;10.32;;;17.10;99.90;;;;;;7599024;19;20624;-77
2023/06/23 07:19:05;;;;;;;13.02;9.02;;;17.10;99.90;;;;;;7597838;19;20614;-77
2023/06/23 07:21:38;;;;;;;13.45;9.43;;;17.20;99.90;;;;;;7591302;19;21362;-76
2023/06/23 07:24:10;;;;;;;14.63;10.13;;;17.20;99.90;;;;;;7591385;19;20022;-76
2023/06/23 07:26:42;;;;;;;16.30;11.15;;;17.10;99.90;;;;;;7599662;19;20022;-76
2023/06/23 07:29:14;;;;;;;14.20;10.73;;;17.00;99.90;;;;;;7598413;19;20684;-77
2023/06/23 07:31:47;;;;;;;17.50;13.02;;;16.90;99.90;;;;;;7591823;19;20110;-77
2023/06/23 07:34:19;;;;;;;14.48;10.75;;;16.80;99.90;;;;;;7595833;19;20019;-77
2023/06/23 07:36:51;;;;;;;18.75;11.95;;;16.80;99.90;;;;;;7592927;19;20020;-76
2023/06/23 07:39:23;;;;;;;15.45;11.73;;;16.90;99.90;;;;;;7591065;19;20018;-76
2023/06/23 07:41:56;;;;;;;17.80;12.77;;;16.80;99.90;;;;;;7596866;19;20026;-76
2023/06/23 07:44:28;;;;;;;17.58;13.10;;;16.70;99.90;;;;;;7589094;19;21472;-76
2023/06/23 07:47:00;;;;;;;16.80;12.00;;;16.70;99.90;;;;;;7592942;19;20010;-76
2023/06/23 07:49:34;;;;;;;18.30;13.27;;;16.70;99.90;;;;;;7582283;19;20944;-75
2023/06/23 07:52:06;;;;;;;17.77;12.82;;;16.80;99.90;;;;;;7588507;19;20485;-75
2023/06/23 07:54:41;;;;;;;17.73;12.68;;;16.80;99.90;;;;;;7590708;19;20018;-75
2023/06/23 07:57:13;;;;;;;15.43;11.88;;;16.90;99.90;;;;;;7587760;19;20078;-75
2023/06/23 07:59:46;;;;;;;16.48;11.43;;;17.10;99.90;;;;;;7584169;19;20026;-75
2023/06/23 08:02:18;;;;;;;17.85;11.20;;;17.10;99.90;;;;;;7594114;19;20466;-75
2023/06/23 08:04:52;;;;;;;17.48;11.63;;;17.10;99.90;;;;;;7583072;19;20022;-76
2023/06/23 08:07:24;;;;;;;15.90;10.77;;;17.10;99.90;;;;;;7596531;19;20026;-75
2023/06/23 08:09:56;;;;;;;15.43;11.30;;;17.20;99.90;;;;;;7578614;19;20057;-79
2023/06/23 08:12:29;;;;;;;17.70;12.45;;;17.20;99.90;;;;;;7575266;19;20022;-75
2023/06/23 08:15:01;;;;;;;13.68;10.90;;;17.40;99.90;;;;;;7581975;19;20400;-75
2023/06/23 08:17:43;;;;;;;15.43;10.68;;;17.70;99.90;;;;;;7583774;19;20010;-78
2023/06/23 08:20:29;;;;;;;16.38;12.07;;;18.00;99.90;;;;;;7554149;19;20856;-78
2023/06/23 08:23:01;;;;;;;13.70;10.48;;;18.00;99.90;;;;;;7544815;19;20068;-76
2023/06/23 08:25:34;;;;;;;16.73;11.52;;;18.10;99.90;;;;;;7584011;19;20018;-78
2023/06/23 08:28:07;;;;;;;14.73;11.65;;;;;;;;;;7557376;19;20907;-78
2023/06/23 08:30:40;;;;;;;15.25;10.85;;;;;;;;;;7579283;19;20018;-78
2023/06/23 08:33:13;;;;;;;15.15;10.32;;;;;;;;;;7568086;19;20019;-79
2023/06/23 08:35:49;;;;;;;15.57;10.85;;;;;;;;;;7577358;19;20010;-78
2023/06/23 08:38:23;;;;;;;15.32;11.70;;;;;;;;;;7571156;19;20057;-79
2023/06/23 08:40:56;;;;;;;15.85;11.18;;;;;;;;;;7568549;19;20018;-79
2023/06/23 08:43:39;;;;;;;14.80;11.45;;;;;;;;;;7586902;19;20018;-79
2023/06/23 08:46:14;;;;;;;14.10;11.77;;;;;;;;;;7582737;19;20015;-77
2023/06/23 08:48:50;;;;;;;14.82;10.27;;;;;;;;;;7583031;19;20052;-78
2023/06/23 08:51:23;;;;;;;14.95;10.90;;;;;;;;;;7567377;19;20552;-77
2023/06/23 08:53:56;;;;;;;15.70;11.20;;;;;;;;;;7560807;19;20034;-77
2023/06/23 08:56:29;;;;;;;14.88;11.05;;;;;;;;;;7579882;19;20014;-77
2023/06/23 08:59:02;;;;;;;16.00;11.15;;;;;;;;;;7601476;19;20025;-78
2023/06/23 09:01:35;;;;;;;13.63;10.67;;;;;;;;;;7582791;19;20018;-77
2023/06/23 09:04:07;;;;;;;20.25;11.18;;;;;;;;;;7547577;19;20771;-77
2023/06/23 09:06:42;;;;;;;16.10;11.63;;;;;;;;;;7546923;19;20052;-78
2023/06/23 09:09:15;;;;;;;16.07;11.73;;;;;;;;;;7550802;19;20056;-77
2023/06/23 09:11:48;;;;;;;21.48;12.70;;;;;;;;;;7588405;19;20619;-78
2023/06/23 09:14:22;;;;;;;17.08;12.07;;;;;;;;;;7581859;19;20023;-78
2023/06/23 09:16:56;;;;;;;15.25;11.50;;;;;;;;;;7578446;19;20056;-78
2023/06/23 09:19:31;;;;;;;14.50;10.85;;;;;;;;;;7573840;19;20022;-78
2023/06/23 09:22:06;;;;;;;17.48;11.52;;;;;;;;;;7575004;19;20024;-77
2023/06/23 09:24:40;;;;;;;15.52;12.15;;;;;;;;;;7610679;19;20050;-77
2023/06/23 09:27:12;;;;;;;;;;;;;;;;;;7563675;19;20512;-78
2023/06/23 09:29:59;;;;;;;16.23;11.25;;;;;;;;;;7581775;19;19935;-78
2023/06/23 09:32:33;;;;;;;19.77;11.85;;;;;;;;;;7584744;19;20014;-78
2023/06/23 09:35:06;;;;;;;15.43;11.88;;;;;;;;;;7599253;19;20056;-78
2023/06/23 09:37:38;;;;;;;19.70;11.70;;;;;;;;;;7603829;19;20021;-77
2023/06/23 09:40:11;;;;;;;18.33;11.65;;;;;;;;;;7585646;19;20101;-78
2023/06/23 09:42:45;;;;;;;18.27;11.57;;;;;;;;;;7595194;19;20046;-77
2023/06/23 09:45:19;;;;;;;17.63;11.63;;;;;;;;;;7585496;19;21049;-78
2023/06/23 09:47:51;;;;;;;18.43;12.57;;;;;;;;;;7583998;19;20048;-78
2023/06/23 09:50:25;;;;;;;17.05;12.45;;;;;;;;;;7577071;19;20279;-79
2023/06/23 09:53:04;;;;;;;21.00;12.23;;;;;;;;;;7585507;19;20017;-78
2023/06/23 09:55:36;;;;;;;16.33;12.02;;;;;;;;;;7578539;19;20957;-77
2023/06/23 09:58:10;;;;;;;17.70;12.65;;;;;;;;;;7570232;19;20042;-80
2023/06/23 10:00:43;;;;;;;17.38;12.45;;;;;;;;;;7566267;19;20894;-81
2023/06/23 10:03:16;;;;;;;17.08;12.68;;;;;;;;;;7588784;19;20051;-81
2023/06/23 10:05:49;;;;;;;18.55;12.60;;;;;;;;;;7582992;19;20010;-79
2023/06/23 10:08:22;;;;;;;17.00;12.38;;;;;;;;;;7593433;19;20018;-80
2023/06/23 10:10:54;;;;;;;17.40;12.30;;;;;;;;;;7596504;19;20014;-80
2023/06/23 10:13:27;;;;;;;20.17;13.10;;;;;;;;;;7602397;19;20283;-79
2023/06/23 10:16:00;;;;;;;19.97;12.80;;;;;;;;;;7608758;19;20014;-82
2023/06/23 10:18:33;;;;;;;18.27;13.07;;;;;;;;;;7612033;19;20030;-81
2023/06/23 10:21:06;;;;;;;17.67;12.98;;;;;;;;;;7614709;19;20007;-81
2023/06/23 10:23:39;;;;;;;17.93;12.57;;;;;;;;;;7596174;19;20015;-77
2023/06/23 10:26:13;;;;;;;16.77;12.50;;;;;;;;;;7589070;19;20582;-81
2023/06/23 10:28:50;;;;;;;17.02;11.73;;;;;;;;;;6591730;19;10000300;-79
2023/06/23 10:31:23;;;;;;;16.38;11.55;;;;;;;;;;7605003;19;20018;-79
2023/06/23 10:34:01;;;;;;;14.15;11.30;;;;;;;;;;7596879;19;20171;-79
2023/06/23 10:36:36;;;;;;;18.20;12.02;;;;;;;;;;7599693;19;20732;-79
2023/06/23 10:39:12;;;;;;;15.10;10.25;;;;;;;;;;7613994;19;20102;-79
2023/06/23 10:41:46;;;;;;;15.82;10.05;;;;;;;;;;7609432;19;20022;-79
2023/06/23 10:44:19;;;;;;;16.55;10.35;;;;;;;;;;7611868;19;20018;-79
2023/06/23 10:46:52;;;;;;;14.02;9.43;;;;;;;;;;7607744;19;20102;-79
2023/06/23 10:49:25;;;;;;;17.27;9.70;;;;;;;;;;7617357;19;20022;-78
2023/06/23 10:51:59;;;;;;;15.23;9.47;;;;;;;;;;7611676;19;20067;-79
2023/06/23 10:54:31;;;;;;;15.35;10.50;;;;;;;;;;7615312;19;20023;-79
2023/06/23 10:57:11;;;;;;;16.30;12.60;;;;;;;;;;7618008;19;21315;-79
2023/06/23 10:59:44;;;;;;;15.27;12.45;;;;;;;;;;7613378;19;20043;-80
2023/06/23 11:02:17;;;;;;;;;;;;;;;;;;7621624;19;20477;-79
2023/06/23 11:04:57;;;;;;;17.13;12.52;;;;;;;;;;7610829;19;19919;-78
2023/06/23 11:07:30;;;;;;;15.80;11.63;;;;;;;;;;7616688;19;20022;-80
2023/06/23 11:10:06;;;;;;;17.95;11.95;;;;;;;;;;7618420;19;20891;-79
2023/06/23 11:12:43;;;;;;;16.27;12.48;;;;;;;;;;7625801;19;20031;-80
2023/06/23 11:15:21;;;;;;;16.05;11.55;;;;;;;;;;7629679;19;20084;-79
2023/06/23 11:18:00;;;;;;;16.02;11.65;;;;;;;;;;7629679;19;20775;-79
2023/06/23 11:20:39;;;;;;;17.33;11.52;;;;;;;;;;7612569;19;20013;-79
2023/06/23 11:23:13;;;;;;;17.33;12.40;;;;;;;;;;7598755;19;20043;-78
2023/06/23 11:25:49;;;;;;;15.25;10.77;;;;;;;;;;7620465;19;20052;-78
2023/06/23 11:28:35;;;;;;;18.40;11.30;;;;;;;;;;7624600;19;20035;-77
2023/06/23 11:31:15;;;;;;;17.00;10.77;;;;;;;;;;7619142;19;20022;-77
2023/06/23 11:34:03;;;;;;;21.02;10.05;;;;;;;;;;7597728;19;20018;-78
2023/06/23 11:36:36;;;;;;;18.52;12.63;;;;;;;;;;7605595;19;20018;-79
2023/06/23 11:39:09;;;;;;;18.70;12.60;;;;;;;;;;7605415;19;20017;-78
2023/06/23 11:41:44;;;;;;;17.25;12.32;;;;;;;;;;7607499;19;20806;-78
2023/06/23 11:44:21;;;;;;;18.35;12.93;;;;;;;;;;7613998;19;20020;-78
2023/06/23 11:46:54;;;;;;;18.20;13.40;;;;;;;;;;7604219;19;20022;-76
2023/06/23 11:49:27;;;;;;;17.98;12.43;;;;;;;;;;7601023;19;20014;-78
2023/06/23 11:52:06;;;;;;;16.23;10.80;;;;;;;;;;7603033;19;20668;-78
2023/06/23 11:54:39;;;;;;;15.85;11.95;;;;;;;;;;7607659;19;20018;-76
2023/06/23 11:57:11;;;;;;;14.43;10.70;;;;;;;;;;7603086;19;20820;-78
2023/06/23 11:59:44;;;;;;;;;;;;;;;;;;7601351;19;20014;-78
2023/06/23 12:02:17;;;;;;;14.35;10.48;;;;;;;;;;7599491;19;19930;-78
2023/06/23 12:04:51;;;;;;;16.88;10.45;;;;;;;;;;7591966;19;20010;-78
2023/06/23 12:07:28;;;;;;;14.20;10.95;;;;;;;;;;7602537;19;20023;-80
2023/06/23 12:10:02;;;;;;;15.13;10.45;;;;;;;;;;7608518;19;20651;-80
2023/06/23 12:12:35;;;;;;;15.65;10.20;;;;;;;;;;7597366;19;20018;-81
2023/06/23 12:15:08;;;;;;;13.88;9.55;;;;;;;;;;7599083;19;20018;-80
2023/06/23 12:17:44;;;;;;;11.50;9.10;;;;;;;;;;7581929;19;20082;-79
2023/06/23 12:20:19;;;;;;;9.93;7.55;;;;;;;;;;7608477;19;20018;-78
2023/06/23 12:22:52;;;;;;;14.82;8.18;;;;;;;;;;7592979;19;20844;-79
2023/06/23 12:25:30;;;;;;;11.23;7.10;;;;;;;;;;7609098;19;20042;-79
2023/06/23 12:28:04;;;;;;;10.45;7.50;;;;;;;;;;7599281;19;20062;-78
2023/06/23 12:30:36;;;;;;;;;;;;;;;;;;7603949;19;20060;-79
2023/06/23 12:33:22;;;;;;;10.32;6.47;;;;;;;;;;7588840;19;19998;-77
2023/06/23 12:35:55;;;;;;;13.25;7.65;;;;;;;;;;7581963;19;20014;-78
2023/06/23 12:38:28;;;;;;;8.77;7.13;;;;;;;;;;7614784;19;20010;-77
2023/06/23 12:41:15;;;;;;;8.45;6.07;;;;;;;;;;7604090;19;20614;-78
2023/06/23 12:43:48;;;;;;;11.88;6.68;;;;;;;;;;7592224;19;20102;-77
2023/06/23 12:46:23;;;;;;;10.98;6.03;;;;;;;;;;7573674;19;20097;-77
2023/06/23 12:48:56;;;;;;;9.23;6.22;;;;;;;;;;7591665;19;20052;-79
2023/06/23 12:51:36;;;;;;;9.52;7.07;;;;;;;;;;7596296;19;20023;-77
2023/06/23 12:54:08;;;;;;;10.30;6.18;;;;;;;;;;7601111;19;20022;-77
2023/06/23 12:56:41;;;;;;;16.52;6.95;;;;;;;;;;7587227;19;20591;-78
2023/06/23 12:59:14;;;;;;;13.02;6.70;;;;;;;;;;7597379;19;20025;-78
2023/06/23 13:01:48;;;;;;;8.73;6.47;;;;;;;;;;7587469;19;20106;-76
2023/06/23 13:04:21;;;;;;;8.05;6.38;;;;;;;;;;7592157;19;20289;-76
2023/06/23 13:06:55;;;;;;;9.43;5.88;;;;;;;;;;7603205;19;20125;-80
2023/06/23 13:09:27;;;;;;;;;;;;;;;;;;7604367;19;20018;-79
2023/06/23 13:12:00;;;;;;;8.07;5.07;;;;;;;;;;7590513;19;20860;-80
2023/06/23 13:14:33;;;;;;;7.15;5.57;;;;;;;;;;7562001;19;20320;-79
2023/06/23 13:17:05;;;;;;;9.48;5.53;;;;;;;;;;7583462;19;20066;-79
2023/06/23 13:19:38;;;;;;;9.63;5.43;;;;;;;;;;7613961;19;20021;-82
2023/06/23 13:22:11;;;;;;;9.00;5.15;;;;;;;;;;7577075;19;20017;-81
2023/06/23 13:24:44;;;;;;;6.38;5.47;;;;;;;;;;7602017;19;20010;-79
2023/06/23 13:27:17;;;;;;;7.13;5.50;;;;;;;;;;7585594;19;20055;-81
2023/06/23 13:29:50;;;;;;;6.43;4.80;;;;;;;;;;7618683;19;20029;-80
2023/06/23 13:32:22;;;;;;;6.28;4.95;;;;;;;;;;7607364;19;20039;-80
2023/06/23 13:34:55;;;;;;;7.00;5.10;;;;;;;;;;7593401;19;20014;-79
2023/06/23 13:37:28;;;;;;;6.75;5.20;;;;;;;;;;7576523;19;20171;-80
2023/06/23 13:40:03;;;;;;;5.55;4.95;;;;;;;;;;7604538;19;20014;-81
2023/06/23 13:42:36;;;;;;;6.28;5.13;;;;;;;;;;7596880;19;20035;-80
2023/06/23 13:45:08;;;;;;;8.10;5.90;;;;;;;;;;7589824;19;20974;-77
2023/06/23 13:47:41;;;;;;;7.70;5.38;;;;;;;;;;7589145;19;20010;-77
2023/06/23 13:50:14;;;;;;;;;;;;;;;;;;7612859;19;20024;-77
2023/06/23 13:52:48;;;;;;;6.87;4.63;;;;;;;;;;7602552;19;19915;-77
2023/06/23 13:55:20;;;;;;;7.15;5.70;;;;;;;;;;7597496;19;20790;-77
2023/06/23 13:57:53;;;;;;;7.95;5.72;;;;;;;;;;7598933;19;20031;-78
2023/06/23 14:00:26;;;;;;;7.73;5.73;;;;;;;;;;7597427;19;20101;-79
2023/06/23 14:02:59;;;;;;;5.95;5.35;;;;;;;;;;7603743;19;20050;-78
2023/06/23 14:05:32;;;;;;;9.07;7.65;;;18.10;99.90;;;;;;7613810;19;20018;-78
2023/06/23 14:08:23;;;;;;;8.75;6.50;;;;;;;;;;7606044;19;20018;-76
2023/06/23 14:10:55;;;;;;;9.07;6.97;;;;;;;;;;7610184;19;20022;-77
2023/06/23 14:13:28;;;;;;;8.27;5.77;;;;;;;;;;7598284;19;20350;-77
2023/06/23 14:16:00;;;;;;;10.37;5.90;;;;;;;;;;7599671;19;20018;-77
2023/06/23 14:18:36;;;;;;;7.40;5.28;;;;;;;;;;7604242;19;21183;-77
2023/06/23 14:21:08;;;;;;;7.20;5.50;;;;;;;;;;7607705;19;21156;-76
2023/06/23 14:23:41;;;;;;;10.45;5.53;;;;;;;;;;7613495;19;20279;-77
2023/06/23 14:26:14;;;;;;;6.27;5.20;;;;;;;;;;7610847;19;20042;-77
2023/06/23 14:28:46;;;;;;;13.30;5.32;;;;;;;;;;7617105;19;20018;-79
2023/06/23 14:31:19;;;;;;;7.60;5.35;;;;;;;;;;7596622;19;20022;-77
2023/06/23 14:33:53;;;;;;;6.55;5.03;;;;;;;;;;7600415;19;20508;-77
2023/06/23 14:36:28;;;;;;;8.93;5.50;;;;;;;;;;7609048;19;20015;-78
2023/06/23 14:39:01;;;;;;;8.13;5.37;;;;;;;;;;7596224;19;20010;-77
2023/06/23 14:41:34;;;;;;;7.70;5.82;;;;;;;;;;7604026;19;20040;-77